createdAt,value
2023-06-13T00:01:55.811Z,45.8
2023-06-13T00:11:55.792Z,45.6
2023-06-13T00:21:55.735Z,45.6
2023-06-13T00:31:55.713Z,45.6
2023-06-13T00:41:55.662Z,45.8
2023-06-13T00:51:55.638Z,46.4
2023-06-13T01:01:55.603Z,46.6
2023-06-13T01:11:55.603Z,47.4
2023-06-13T01:21:55.525Z,47.8
2023-06-13T01:31:55.498Z,47.8
2023-06-13T01:41:55.467Z,47.4
2023-06-13T01:51:55.427Z,48
2023-06-13T02:01:55.408Z,48.4
2023-06-13T02:11:55.350Z,48.8
2023-06-13T02:21:55.344Z,50
2023-06-13T02:31:55.314Z,50.8
2023-06-13T02:41:55.258Z,50.6
2023-06-13T02:51:55.226Z,50
2023-06-13T03:01:55.179Z,50.2
2023-06-13T03:11:55.149Z,50.2
2023-06-13T03:21:55.109Z,50.4
2023-06-13T03:31:55.082Z,50.8
2023-06-13T03:41:55.051Z,51.2
2023-06-13T03:51:55.002Z,51.4
2023-06-13T04:01:54.978Z,51.8
2023-06-13T04:11:54.960Z,52
2023-06-13T04:21:54.910Z,52
2023-06-13T04:31:54.861Z,52.4
2023-06-13T04:41:54.892Z,53.2
2023-06-13T04:51:54.786Z,53.8
2023-06-13T05:01:54.772Z,54
2023-06-13T05:11:54.741Z,53.8
2023-06-13T05:21:54.693Z,53.2
2023-06-13T05:31:54.697Z,52.4
2023-06-13T05:41:54.637Z,51.8
2023-06-13T05:51:54.686Z,50.4
2023-06-13T06:01:54.577Z,50.2
2023-06-13T06:11:54.530Z,50
2023-06-13T06:21:54.481Z,48.8
2023-06-13T06:31:54.462Z,48.4
2023-06-13T06:41:54.433Z,47
2023-06-13T06:51:54.394Z,46.6
2023-06-13T07:01:54.338Z,45.4
2023-06-13T07:11:54.316Z,44.2
2023-06-13T07:21:54.293Z,43
2023-06-13T07:31:54.358Z,42.6
2023-06-13T07:41:54.464Z,42.8
2023-06-13T07:51:54.175Z,42.2
2023-06-13T08:01:54.329Z,42
2023-06-13T08:11:54.114Z,41
2023-06-13T08:21:54.094Z,41
2023-06-13T08:31:54.032Z,40.4
2023-06-13T08:41:54.170Z,39.2
2023-06-13T08:51:54.139Z,39.4
2023-06-13T09:01:53.998Z,38.6
2023-06-13T09:11:54.085Z,38.2
2023-06-13T09:21:53.923Z,38.4
2023-06-13T09:31:54.059Z,36.4
2023-06-13T09:41:53.956Z,36.6
2023-06-13T09:51:53.969Z,35.2
2023-06-13T10:01:53.900Z,34.2
2023-06-13T10:11:53.850Z,35
2023-06-13T10:21:53.844Z,34.6
2023-06-13T10:31:53.790Z,34.8
2023-06-13T10:41:53.758Z,34.2
2023-06-13T10:51:53.757Z,34
2023-06-13T11:01:53.678Z,33.2
2023-06-13T11:11:53.637Z,34
2023-06-13T11:21:53.660Z,33.6
2023-06-13T11:31:53.620Z,33.4
2023-06-13T11:41:53.554Z,33.4
2023-06-13T11:51:53.427Z,32.8
2023-06-13T12:01:53.553Z,31.4
2023-06-13T12:11:53.454Z,30.8
2023-06-13T12:21:53.260Z,31.2
2023-06-13T12:31:53.455Z,31.4
2023-06-13T12:41:53.231Z,31.6
2023-06-13T12:51:53.140Z,30.8
2023-06-13T13:01:53.130Z,30.6
2023-06-13T13:11:53.083Z,29
2023-06-13T13:21:53.205Z,29.2
2023-06-13T13:31:53.194Z,28.2
2023-06-13T13:41:53.064Z,27.6
2023-06-13T13:51:52.925Z,27.6
2023-06-13T14:01:52.997Z,28.6
2023-06-13T14:21:53.006Z,28.6
2023-06-13T14:31:52.837Z,28.4
2023-06-13T14:41:52.796Z,29
2023-06-13T14:51:52.909Z,28.6
2023-06-13T15:01:52.809Z,29.2
2023-06-13T15:11:52.822Z,29.6
2023-06-13T15:21:52.766Z,29.2
2023-06-13T15:31:52.773Z,29
2023-06-13T15:41:52.853Z,28.2
2023-06-13T15:51:52.720Z,28.6
2023-06-13T16:01:52.546Z,28
2023-06-13T16:11:52.597Z,28.8
2023-06-13T16:21:52.568Z,28.2
2023-06-13T16:31:52.562Z,26.8
2023-06-13T16:41:52.606Z,26.6
2023-06-13T16:51:52.451Z,25
2023-06-13T17:11:52.198Z,25.6
2023-06-13T17:21:52.179Z,26.8
2023-06-13T17:31:52.252Z,28.2
2023-06-13T17:41:52.278Z,29.2
2023-06-13T17:51:52.314Z,30.4
2023-06-13T18:01:52.271Z,31.2
2023-06-13T18:11:52.135Z,31.8
2023-06-13T18:21:52.163Z,32.6
2023-06-13T18:31:52.030Z,33.8
2023-06-13T18:41:51.901Z,35.2
2023-06-13T18:51:52.002Z,35.8
2023-06-13T19:01:51.841Z,36.4
2023-06-13T19:11:51.883Z,36.8
2023-06-13T19:21:51.869Z,37.8
2023-06-13T19:31:51.961Z,38.2
2023-06-13T19:41:51.899Z,39.2
2023-06-13T19:51:51.762Z,40.6
2023-06-13T20:01:51.699Z,41.2
2023-06-13T20:11:51.759Z,42.4
2023-06-13T20:21:51.582Z,43
2023-06-13T20:31:51.522Z,43.8
2023-06-13T20:41:51.505Z,44.4
2023-06-13T20:51:51.429Z,45.2
2023-06-13T21:01:51.486Z,45.8
2023-06-13T21:11:51.441Z,46.2
2023-06-13T21:21:51.366Z,46.4
2023-06-13T21:31:51.297Z,46.6
2023-06-13T21:41:51.244Z,47.2
2023-06-13T21:51:51.253Z,47.4
2023-06-13T22:01:51.373Z,48
2023-06-13T22:11:51.358Z,48.6
2023-06-13T22:21:51.141Z,49.6
2023-06-13T22:31:51.073Z,50
2023-06-13T22:41:51.067Z,50.2
2023-06-13T22:51:51.053Z,50.6
2023-06-13T23:01:51.143Z,51.2
2023-06-13T23:11:51.122Z,51.8
2023-06-13T23:21:51.145Z,52
2023-06-13T23:31:50.875Z,52.8
2023-06-13T23:41:50.925Z,53.6
2023-06-13T23:51:50.814Z,54.4
